sensor_id;sensor_type;location;lat;lon;timestamp;P1;durP1;ratioP1;P2;durP2;ratioP2
11598;SDS011;5855;48.840;9.188;2023-07-22T00:01:18;2.80;;;2.20;;
11598;SDS011;5855;48.840;9.188;2023-07-22T00:03:45;3.72;;;2.70;;
11598;SDS011;5855;48.840;9.188;2023-07-22T00:06:12;2.88;;;2.67;;
11598;SDS011;5855;48.840;9.188;2023-07-22T00:08:39;5.57;;;2.83;;
11598;SDS011;5855;48.840;9.188;2023-07-22T00:11:06;4.05;;;2.75;;
11598;SDS011;5855;48.840;9.188;2023-07-22T00:13:33;2.72;;;2.50;;
11598;SDS011;5855;48.840;9.188;2023-07-22T00:16:00;3.72;;;2.58;;
11598;SDS011;5855;48.840;9.188;2023-07-22T00:18:30;2.97;;;2.67;;
11598;SDS011;5855;48.840;9.188;2023-07-22T00:20:57;3.78;;;2.72;;
11598;SDS011;5855;48.840;9.188;2023-07-22T00:23:24;2.63;;;2.42;;
11598;SDS011;5855;48.840;9.188;2023-07-22T00:25:51;3.10;;;2.67;;
11598;SDS011;5855;48.840;9.188;2023-07-22T00:28:18;4.05;;;2.75;;
11598;SDS011;5855;48.840;9.188;2023-07-22T00:30:45;3.92;;;2.47;;
11598;SDS011;5855;48.840;9.188;2023-07-22T00:33:14;5.72;;;2.72;;
11598;SDS011;5855;48.840;9.188;2023-07-22T00:35:42;4.00;;;2.90;;
11598;SDS011;5855;48.840;9.188;2023-07-22T00:38:13;2.80;;;2.50;;
11598;SDS011;5855;48.840;9.188;2023-07-22T00:40:40;2.75;;;2.40;;
11598;SDS011;5855;48.840;9.188;2023-07-22T00:43:07;5.50;;;2.60;;
11598;SDS011;5855;48.840;9.188;2023-07-22T00:45:34;3.25;;;2.83;;
11598;SDS011;5855;48.840;9.188;2023-07-22T00:48:01;3.42;;;3.00;;
11598;SDS011;5855;48.840;9.188;2023-07-22T00:50:28;4.15;;;2.97;;
11598;SDS011;5855;48.840;9.188;2023-07-22T00:52:57;5.78;;;2.70;;
11598;SDS011;5855;48.840;9.188;2023-07-22T00:55:24;2.90;;;2.42;;
11598;SDS011;5855;48.840;9.188;2023-07-22T00:57:52;2.67;;;2.47;;
11598;SDS011;5855;48.840;9.188;2023-07-22T01:00:18;3.10;;;2.78;;
11598;SDS011;5855;48.840;9.188;2023-07-22T01:02:45;4.03;;;3.03;;
11598;SDS011;5855;48.840;9.188;2023-07-22T01:05:12;3.35;;;2.80;;
11598;SDS011;5855;48.840;9.188;2023-07-22T01:07:39;2.95;;;2.70;;
11598;SDS011;5855;48.840;9.188;2023-07-22T01:10:08;3.17;;;2.60;;
11598;SDS011;5855;48.840;9.188;2023-07-22T01:12:35;3.78;;;2.63;;
11598;SDS011;5855;48.840;9.188;2023-07-22T01:15:03;4.60;;;2.90;;
11598;SDS011;5855;48.840;9.188;2023-07-22T01:17:32;3.15;;;2.75;;
11598;SDS011;5855;48.840;9.188;2023-07-22T01:20:00;3.55;;;2.80;;
11598;SDS011;5855;48.840;9.188;2023-07-22T01:22:28;3.83;;;2.80;;
11598;SDS011;5855;48.840;9.188;2023-07-22T01:24:57;3.88;;;2.40;;
11598;SDS011;5855;48.840;9.188;2023-07-22T01:27:24;5.55;;;2.67;;
11598;SDS011;5855;48.840;9.188;2023-07-22T01:29:51;4.07;;;2.50;;
11598;SDS011;5855;48.840;9.188;2023-07-22T01:32:18;2.65;;;2.45;;
11598;SDS011;5855;48.840;9.188;2023-07-22T01:34:46;4.78;;;2.60;;
11598;SDS011;5855;48.840;9.188;2023-07-22T01:37:14;2.72;;;2.53;;
11598;SDS011;5855;48.840;9.188;2023-07-22T01:39:42;3.60;;;2.60;;
11598;SDS011;5855;48.840;9.188;2023-07-22T01:42:10;3.03;;;2.47;;
11598;SDS011;5855;48.840;9.188;2023-07-22T01:44:36;3.38;;;2.70;;
11598;SDS011;5855;48.840;9.188;2023-07-22T01:47:03;2.50;;;2.20;;
11598;SDS011;5855;48.840;9.188;2023-07-22T01:49:30;2.75;;;2.38;;
11598;SDS011;5855;48.840;9.188;2023-07-22T01:51:59;4.25;;;2.80;;
11598;SDS011;5855;48.840;9.188;2023-07-22T01:54:26;3.05;;;2.75;;
11598;SDS011;5855;48.840;9.188;2023-07-22T01:56:53;3.15;;;2.70;;
11598;SDS011;5855;48.840;9.188;2023-07-22T01:59:21;2.90;;;2.65;;
11598;SDS011;5855;48.840;9.188;2023-07-22T02:01:48;2.95;;;2.20;;
11598;SDS011;5855;48.840;9.188;2023-07-22T02:04:15;3.40;;;2.60;;
11598;SDS011;5855;48.840;9.188;2023-07-22T02:06:41;3.80;;;2.53;;
11598;SDS011;5855;48.840;9.188;2023-07-22T02:09:08;3.38;;;2.40;;
11598;SDS011;5855;48.840;9.188;2023-07-22T02:11:38;4.25;;;2.53;;
11598;SDS011;5855;48.840;9.188;2023-07-22T02:14:05;2.60;;;2.25;;
11598;SDS011;5855;48.840;9.188;2023-07-22T02:16:34;3.33;;;2.97;;
11598;SDS011;5855;48.840;9.188;2023-07-22T02:19:01;2.80;;;2.60;;
11598;SDS011;5855;48.840;9.188;2023-07-22T02:21:28;3.15;;;2.85;;
11598;SDS011;5855;48.840;9.188;2023-07-22T02:23:55;3.65;;;2.65;;
11598;SDS011;5855;48.840;9.188;2023-07-22T02:26:22;3.58;;;2.78;;
11598;SDS011;5855;48.840;9.188;2023-07-22T02:28:49;3.53;;;2.58;;
11598;SDS011;5855;48.840;9.188;2023-07-22T02:31:16;3.85;;;2.67;;
11598;SDS011;5855;48.840;9.188;2023-07-22T02:33:44;2.80;;;2.60;;
11598;SDS011;5855;48.840;9.188;2023-07-22T02:36:11;4.03;;;2.88;;
11598;SDS011;5855;48.840;9.188;2023-07-22T02:38:38;3.63;;;2.67;;
11598;SDS011;5855;48.840;9.188;2023-07-22T02:41:05;2.95;;;2.60;;
11598;SDS011;5855;48.840;9.188;2023-07-22T02:43:33;4.05;;;2.80;;
11598;SDS011;5855;48.840;9.188;2023-07-22T02:46:00;3.20;;;2.90;;
11598;SDS011;5855;48.840;9.188;2023-07-22T02:48:28;3.35;;;2.88;;
11598;SDS011;5855;48.840;9.188;2023-07-22T02:51:02;2.85;;;2.65;;
11598;SDS011;5855;48.840;9.188;2023-07-22T02:53:33;3.33;;;3.00;;
11598;SDS011;5855;48.840;9.188;2023-07-22T02:56:01;3.03;;;2.70;;
11598;SDS011;5855;48.840;9.188;2023-07-22T02:58:29;2.85;;;2.58;;
11598;SDS011;5855;48.840;9.188;2023-07-22T03:00:56;2.90;;;2.70;;
11598;SDS011;5855;48.840;9.188;2023-07-22T03:03:23;5.20;;;2.80;;
11598;SDS011;5855;48.840;9.188;2023-07-22T03:05:50;3.72;;;2.72;;
11598;SDS011;5855;48.840;9.188;2023-07-22T03:08:18;4.80;;;2.70;;
11598;SDS011;5855;48.840;9.188;2023-07-22T03:10:45;3.35;;;2.75;;
11598;SDS011;5855;48.840;9.188;2023-07-22T03:13:13;2.60;;;2.40;;
11598;SDS011;5855;48.840;9.188;2023-07-22T03:15:40;5.10;;;2.70;;
11598;SDS011;5855;48.840;9.188;2023-07-22T03:18:07;3.47;;;2.53;;
11598;SDS011;5855;48.840;9.188;2023-07-22T03:20:35;3.45;;;2.60;;
11598;SDS011;5855;48.840;9.188;2023-07-22T03:23:02;2.85;;;2.65;;
11598;SDS011;5855;48.840;9.188;2023-07-22T03:25:30;2.63;;;2.40;;
11598;SDS011;5855;48.840;9.188;2023-07-22T03:27:57;2.85;;;2.63;;
11598;SDS011;5855;48.840;9.188;2023-07-22T03:30:24;3.72;;;2.80;;
11598;SDS011;5855;48.840;9.188;2023-07-22T03:32:51;4.15;;;3.22;;
11598;SDS011;5855;48.840;9.188;2023-07-22T03:35:18;3.45;;;2.88;;
11598;SDS011;5855;48.840;9.188;2023-07-22T03:37:45;5.10;;;3.10;;
11598;SDS011;5855;48.840;9.188;2023-07-22T03:40:12;3.28;;;2.97;;
11598;SDS011;5855;48.840;9.188;2023-07-22T03:42:45;4.88;;;3.45;;
11598;SDS011;5855;48.840;9.188;2023-07-22T03:45:12;3.78;;;2.70;;
11598;SDS011;5855;48.840;9.188;2023-07-22T03:47:39;4.35;;;3.00;;
11598;SDS011;5855;48.840;9.188;2023-07-22T03:50:07;5.43;;;3.00;;
11598;SDS011;5855;48.840;9.188;2023-07-22T03:52:34;3.95;;;3.45;;
11598;SDS011;5855;48.840;9.188;2023-07-22T03:55:01;3.53;;;3.20;;
11598;SDS011;5855;48.840;9.188;2023-07-22T03:57:28;4.47;;;3.20;;
11598;SDS011;5855;48.840;9.188;2023-07-22T03:59:56;3.55;;;3.00;;
11598;SDS011;5855;48.840;9.188;2023-07-22T04:02:24;3.58;;;3.25;;
11598;SDS011;5855;48.840;9.188;2023-07-22T04:04:51;3.80;;;3.47;;
11598;SDS011;5855;48.840;9.188;2023-07-22T04:07:19;3.95;;;3.40;;
11598;SDS011;5855;48.840;9.188;2023-07-22T04:09:46;4.28;;;3.15;;
11598;SDS011;5855;48.840;9.188;2023-07-22T04:12:13;4.63;;;3.70;;
11598;SDS011;5855;48.840;9.188;2023-07-22T04:14:40;4.45;;;3.22;;
11598;SDS011;5855;48.840;9.188;2023-07-22T04:17:09;7.55;;;3.97;;
11598;SDS011;5855;48.840;9.188;2023-07-22T04:19:35;4.32;;;3.13;;
11598;SDS011;5855;48.840;9.188;2023-07-22T04:22:02;4.47;;;3.50;;
11598;SDS011;5855;48.840;9.188;2023-07-22T04:24:31;4.00;;;3.60;;
11598;SDS011;5855;48.840;9.188;2023-07-22T04:26:58;3.47;;;3.17;;
11598;SDS011;5855;48.840;9.188;2023-07-22T04:29:25;4.07;;;3.67;;
11598;SDS011;5855;48.840;9.188;2023-07-22T04:31:56;3.90;;;3.20;;
11598;SDS011;5855;48.840;9.188;2023-07-22T04:34:24;4.57;;;3.63;;
11598;SDS011;5855;48.840;9.188;2023-07-22T04:36:54;3.38;;;3.08;;
11598;SDS011;5855;48.840;9.188;2023-07-22T04:39:21;3.95;;;3.40;;
11598;SDS011;5855;48.840;9.188;2023-07-22T04:41:48;3.92;;;3.53;;
11598;SDS011;5855;48.840;9.188;2023-07-22T04:44:15;4.03;;;3.08;;
11598;SDS011;5855;48.840;9.188;2023-07-22T04:46:43;4.75;;;3.72;;
11598;SDS011;5855;48.840;9.188;2023-07-22T04:49:10;5.68;;;3.50;;
11598;SDS011;5855;48.840;9.188;2023-07-22T04:51:38;5.55;;;3.45;;
11598;SDS011;5855;48.840;9.188;2023-07-22T04:54:06;4.53;;;3.28;;
11598;SDS011;5855;48.840;9.188;2023-07-22T04:56:32;5.05;;;3.30;;
11598;SDS011;5855;48.840;9.188;2023-07-22T04:58:59;4.95;;;3.50;;
11598;SDS011;5855;48.840;9.188;2023-07-22T05:01:26;4.25;;;3.55;;
11598;SDS011;5855;48.840;9.188;2023-07-22T05:03:53;5.05;;;3.40;;
11598;SDS011;5855;48.840;9.188;2023-07-22T05:06:20;3.97;;;3.58;;
11598;SDS011;5855;48.840;9.188;2023-07-22T05:08:48;5.32;;;3.63;;
11598;SDS011;5855;48.840;9.188;2023-07-22T05:11:15;4.05;;;3.20;;
11598;SDS011;5855;48.840;9.188;2023-07-22T05:13:42;3.80;;;3.28;;
11598;SDS011;5855;48.840;9.188;2023-07-22T05:16:08;5.63;;;3.35;;
11598;SDS011;5855;48.840;9.188;2023-07-22T05:18:35;3.50;;;3.20;;
11598;SDS011;5855;48.840;9.188;2023-07-22T05:21:03;4.13;;;3.50;;
11598;SDS011;5855;48.840;9.188;2023-07-22T05:23:30;5.55;;;3.63;;
11598;SDS011;5855;48.840;9.188;2023-07-22T05:25:58;5.43;;;3.70;;
11598;SDS011;5855;48.840;9.188;2023-07-22T05:28:25;5.80;;;3.50;;
11598;SDS011;5855;48.840;9.188;2023-07-22T05:30:52;4.45;;;3.30;;
11598;SDS011;5855;48.840;9.188;2023-07-22T05:33:21;4.68;;;3.20;;
11598;SDS011;5855;48.840;9.188;2023-07-22T05:35:48;3.67;;;2.78;;
11598;SDS011;5855;48.840;9.188;2023-07-22T05:38:15;5.43;;;3.38;;
11598;SDS011;5855;48.840;9.188;2023-07-22T05:40:42;3.70;;;3.13;;
11598;SDS011;5855;48.840;9.188;2023-07-22T05:43:10;4.03;;;3.17;;
11598;SDS011;5855;48.840;9.188;2023-07-22T05:45:37;3.53;;;2.78;;
11598;SDS011;5855;48.840;9.188;2023-07-22T05:48:04;4.10;;;3.08;;
11598;SDS011;5855;48.840;9.188;2023-07-22T05:50:31;3.28;;;2.97;;
11598;SDS011;5855;48.840;9.188;2023-07-22T05:52:58;3.78;;;2.88;;
11598;SDS011;5855;48.840;9.188;2023-07-22T05:55:25;3.45;;;3.15;;
11598;SDS011;5855;48.840;9.188;2023-07-22T05:57:52;4.18;;;3.08;;
11598;SDS011;5855;48.840;9.188;2023-07-22T06:00:21;4.85;;;2.97;;
11598;SDS011;5855;48.840;9.188;2023-07-22T06:02:48;4.78;;;3.05;;
11598;SDS011;5855;48.840;9.188;2023-07-22T06:05:14;3.53;;;2.88;;
11598;SDS011;5855;48.840;9.188;2023-07-22T06:07:41;3.75;;;3.00;;
11598;SDS011;5855;48.840;9.188;2023-07-22T06:10:09;3.17;;;2.70;;
11598;SDS011;5855;48.840;9.188;2023-07-22T06:12:36;2.83;;;2.63;;
11598;SDS011;5855;48.840;9.188;2023-07-22T06:15:03;4.15;;;3.08;;
11598;SDS011;5855;48.840;9.188;2023-07-22T06:17:32;4.20;;;2.70;;
11598;SDS011;5855;48.840;9.188;2023-07-22T06:19:59;3.92;;;2.70;;
11598;SDS011;5855;48.840;9.188;2023-07-22T06:22:26;3.28;;;2.75;;
11598;SDS011;5855;48.840;9.188;2023-07-22T06:24:53;3.33;;;3.03;;
11598;SDS011;5855;48.840;9.188;2023-07-22T06:27:21;4.07;;;2.80;;
11598;SDS011;5855;48.840;9.188;2023-07-22T06:29:48;3.92;;;2.80;;
11598;SDS011;5855;48.840;9.188;2023-07-22T06:32:15;5.00;;;2.90;;
11598;SDS011;5855;48.840;9.188;2023-07-22T06:34:43;4.13;;;2.92;;
11598;SDS011;5855;48.840;9.188;2023-07-22T06:37:10;3.45;;;2.38;;
11598;SDS011;5855;48.840;9.188;2023-07-22T06:39:37;4.20;;;2.53;;
11598;SDS011;5855;48.840;9.188;2023-07-22T06:42:04;3.90;;;2.72;;
11598;SDS011;5855;48.840;9.188;2023-07-22T06:44:32;2.55;;;2.25;;
11598;SDS011;5855;48.840;9.188;2023-07-22T06:46:58;3.80;;;2.13;;
11598;SDS011;5855;48.840;9.188;2023-07-22T06:49:25;3.58;;;2.33;;
11598;SDS011;5855;48.840;9.188;2023-07-22T06:51:54;3.63;;;2.35;;
11598;SDS011;5855;48.840;9.188;2023-07-22T06:54:21;4.05;;;2.88;;
11598;SDS011;5855;48.840;9.188;2023-07-22T06:56:48;3.42;;;2.72;;
11598;SDS011;5855;48.840;9.188;2023-07-22T06:59:18;3.05;;;2.53;;
11598;SDS011;5855;48.840;9.188;2023-07-22T07:01:45;2.83;;;2.53;;
11598;SDS011;5855;48.840;9.188;2023-07-22T07:04:11;5.65;;;2.70;;
11598;SDS011;5855;48.840;9.188;2023-07-22T07:06:38;4.70;;;2.95;;
11598;SDS011;5855;48.840;9.188;2023-07-22T07:09:07;3.70;;;2.53;;
11598;SDS011;5855;48.840;9.188;2023-07-22T07:11:33;5.40;;;2.60;;
11598;SDS011;5855;48.840;9.188;2023-07-22T07:14:00;2.83;;;2.30;;
11598;SDS011;5855;48.840;9.188;2023-07-22T07:16:28;3.38;;;2.30;;
11598;SDS011;5855;48.840;9.188;2023-07-22T07:18:56;3.53;;;2.47;;
11598;SDS011;5855;48.840;9.188;2023-07-22T07:21:24;5.03;;;2.50;;
11598;SDS011;5855;48.840;9.188;2023-07-22T07:23:51;2.58;;;2.38;;
11598;SDS011;5855;48.840;9.188;2023-07-22T07:26:23;3.10;;;2.25;;
11598;SDS011;5855;48.840;9.188;2023-07-22T07:28:50;4.43;;;2.35;;
11598;SDS011;5855;48.840;9.188;2023-07-22T07:31:18;2.40;;;2.20;;
11598;SDS011;5855;48.840;9.188;2023-07-22T07:33:44;5.30;;;2.30;;
11598;SDS011;5855;48.840;9.188;2023-07-22T07:36:11;3.30;;;2.10;;
11598;SDS011;5855;48.840;9.188;2023-07-22T07:38:38;2.65;;;2.45;;
11598;SDS011;5855;48.840;9.188;2023-07-22T07:41:05;2.42;;;2.10;;
11598;SDS011;5855;48.840;9.188;2023-07-22T07:43:35;3.72;;;2.20;;
11598;SDS011;5855;48.840;9.188;2023-07-22T07:46:14;2.72;;;2.17;;
11598;SDS011;5855;48.840;9.188;2023-07-22T07:48:44;3.60;;;2.20;;
11598;SDS011;5855;48.840;9.188;2023-07-22T07:51:13;1.98;;;1.83;;
11598;SDS011;5855;48.840;9.188;2023-07-22T07:53:40;2.38;;;2.17;;
11598;SDS011;5855;48.840;9.188;2023-07-22T07:56:08;3.95;;;2.35;;
11598;SDS011;5855;48.840;9.188;2023-07-22T07:58:37;3.08;;;2.20;;
11598;SDS011;5855;48.840;9.188;2023-07-22T08:01:04;3.88;;;2.17;;
11598;SDS011;5855;48.840;9.188;2023-07-22T08:03:32;2.35;;;2.15;;
11598;SDS011;5855;48.840;9.188;2023-07-22T08:06:00;2.83;;;2.30;;
11598;SDS011;5855;48.840;9.188;2023-07-22T08:08:27;3.67;;;2.30;;
11598;SDS011;5855;48.840;9.188;2023-07-22T08:10:57;3.70;;;2.35;;
11598;SDS011;5855;48.840;9.188;2023-07-22T08:13:25;3.00;;;2.70;;
11598;SDS011;5855;48.840;9.188;2023-07-22T08:15:53;3.83;;;2.35;;
11598;SDS011;5855;48.840;9.188;2023-07-22T08:18:20;2.20;;;2.00;;
11598;SDS011;5855;48.840;9.188;2023-07-22T08:20:47;2.13;;;1.90;;
11598;SDS011;5855;48.840;9.188;2023-07-22T08:23:14;3.80;;;2.10;;
11598;SDS011;5855;48.840;9.188;2023-07-22T08:25:40;2.30;;;2.08;;
11598;SDS011;5855;48.840;9.188;2023-07-22T08:28:07;2.65;;;1.92;;
11598;SDS011;5855;48.840;9.188;2023-07-22T08:30:34;2.42;;;1.90;;
11598;SDS011;5855;48.840;9.188;2023-07-22T08:33:02;2.25;;;2.03;;
11598;SDS011;5855;48.840;9.188;2023-07-22T08:35:29;3.97;;;2.03;;
11598;SDS011;5855;48.840;9.188;2023-07-22T08:37:56;2.42;;;2.22;;
11598;SDS011;5855;48.840;9.188;2023-07-22T08:40:23;2.53;;;2.10;;
11598;SDS011;5855;48.840;9.188;2023-07-22T08:42:50;2.97;;;2.10;;
11598;SDS011;5855;48.840;9.188;2023-07-22T08:45:17;3.85;;;2.00;;
11598;SDS011;5855;48.840;9.188;2023-07-22T08:47:46;3.45;;;2.20;;
11598;SDS011;5855;48.840;9.188;2023-07-22T08:50:16;2.15;;;1.90;;
11598;SDS011;5855;48.840;9.188;2023-07-22T08:52:46;2.95;;;2.00;;
11598;SDS011;5855;48.840;9.188;2023-07-22T08:55:14;2.10;;;1.90;;
11598;SDS011;5855;48.840;9.188;2023-07-22T08:57:41;2.33;;;2.05;;
11598;SDS011;5855;48.840;9.188;2023-07-22T09:00:08;1.98;;;1.80;;
11598;SDS011;5855;48.840;9.188;2023-07-22T09:02:36;2.20;;;2.00;;
11598;SDS011;5855;48.840;9.188;2023-07-22T09:05:05;5.43;;;2.65;;
11598;SDS011;5855;48.840;9.188;2023-07-22T09:07:34;3.60;;;2.28;;
11598;SDS011;5855;48.840;9.188;2023-07-22T09:10:03;3.50;;;1.80;;
11598;SDS011;5855;48.840;9.188;2023-07-22T09:12:31;3.58;;;2.00;;
11598;SDS011;5855;48.840;9.188;2023-07-22T09:15:04;2.65;;;1.90;;
11598;SDS011;5855;48.840;9.188;2023-07-22T09:17:34;2.15;;;1.95;;
11598;SDS011;5855;48.840;9.188;2023-07-22T09:20:01;1.85;;;1.67;;
11598;SDS011;5855;48.840;9.188;2023-07-22T09:22:29;2.70;;;1.90;;
11598;SDS011;5855;48.840;9.188;2023-07-22T09:25:13;2.10;;;1.80;;
11598;SDS011;5855;48.840;9.188;2023-07-22T09:27:40;1.65;;;1.55;;
11598;SDS011;5855;48.840;9.188;2023-07-22T09:30:19;2.88;;;1.83;;
11598;SDS011;5855;48.840;9.188;2023-07-22T09:32:47;2.53;;;1.90;;
11598;SDS011;5855;48.840;9.188;2023-07-22T09:35:14;2.25;;;1.90;;
11598;SDS011;5855;48.840;9.188;2023-07-22T09:37:43;4.20;;;1.73;;
11598;SDS011;5855;48.840;9.188;2023-07-22T09:40:14;2.03;;;1.80;;
11598;SDS011;5855;48.840;9.188;2023-07-22T09:42:44;4.03;;;1.70;;
11598;SDS011;5855;48.840;9.188;2023-07-22T09:45:11;2.13;;;1.63;;
11598;SDS011;5855;48.840;9.188;2023-07-22T09:47:41;3.42;;;1.70;;
11598;SDS011;5855;48.840;9.188;2023-07-22T09:50:13;1.83;;;1.67;;
11598;SDS011;5855;48.840;9.188;2023-07-22T09:52:42;1.55;;;1.45;;
11598;SDS011;5855;48.840;9.188;2023-07-22T09:55:12;4.10;;;1.80;;
11598;SDS011;5855;48.840;9.188;2023-07-22T09:57:43;1.70;;;1.60;;
11598;SDS011;5855;48.840;9.188;2023-07-22T10:00:12;3.25;;;1.60;;
11598;SDS011;5855;48.840;9.188;2023-07-22T10:02:41;1.40;;;1.30;;
11598;SDS011;5855;48.840;9.188;2023-07-22T10:05:13;2.72;;;1.48;;
11598;SDS011;5855;48.840;9.188;2023-07-22T10:07:45;2.05;;;1.50;;
11598;SDS011;5855;48.840;9.188;2023-07-22T10:10:12;2.25;;;1.40;;
11598;SDS011;5855;48.840;9.188;2023-07-22T10:12:44;1.50;;;1.40;;
11598;SDS011;5855;48.840;9.188;2023-07-22T10:15:13;2.67;;;1.70;;
11598;SDS011;5855;48.840;9.188;2023-07-22T10:17:42;1.50;;;1.40;;
11598;SDS011;5855;48.840;9.188;2023-07-22T10:20:10;1.88;;;1.40;;
11598;SDS011;5855;48.840;9.188;2023-07-22T10:22:41;1.58;;;1.48;;
11598;SDS011;5855;48.840;9.188;2023-07-22T10:25:10;1.63;;;1.50;;
11598;SDS011;5855;48.840;9.188;2023-07-22T10:27:38;2.72;;;1.30;;
11598;SDS011;5855;48.840;9.188;2023-07-22T10:30:08;1.60;;;1.40;;
11598;SDS011;5855;48.840;9.188;2023-07-22T10:32:36;1.50;;;1.40;;
11598;SDS011;5855;48.840;9.188;2023-07-22T10:35:05;1.80;;;1.33;;
11598;SDS011;5855;48.840;9.188;2023-07-22T10:37:36;3.35;;;1.55;;
11598;SDS011;5855;48.840;9.188;2023-07-22T10:40:19;1.85;;;1.33;;
11598;SDS011;5855;48.840;9.188;2023-07-22T10:42:53;1.48;;;1.38;;
11598;SDS011;5855;48.840;9.188;2023-07-22T10:45:25;2.55;;;1.45;;
11598;SDS011;5855;48.840;9.188;2023-07-22T10:48:00;2.45;;;1.80;;
11598;SDS011;5855;48.840;9.188;2023-07-22T10:50:39;2.35;;;1.80;;
11598;SDS011;5855;48.840;9.188;2023-07-22T10:53:08;4.22;;;1.50;;
11598;SDS011;5855;48.840;9.188;2023-07-22T11:01:31;2.95;;;1.80;;
11598;SDS011;5855;48.840;9.188;2023-07-22T11:04:21;1.17;;;1.10;;
11598;SDS011;5855;48.840;9.188;2023-07-22T11:06:55;1.75;;;1.40;;
11598;SDS011;5855;48.840;9.188;2023-07-22T11:09:38;3.35;;;1.42;;
11598;SDS011;5855;48.840;9.188;2023-07-22T11:12:08;1.70;;;1.20;;
11598;SDS011;5855;48.840;9.188;2023-07-22T11:14:39;2.80;;;1.50;;
11598;SDS011;5855;48.840;9.188;2023-07-22T11:17:12;1.80;;;1.30;;
11598;SDS011;5855;48.840;9.188;2023-07-22T11:19:39;1.40;;;1.30;;
11598;SDS011;5855;48.840;9.188;2023-07-22T11:22:06;1.25;;;1.15;;
11598;SDS011;5855;48.840;9.188;2023-07-22T11:24:33;1.98;;;1.55;;
11598;SDS011;5855;48.840;9.188;2023-07-22T11:27:02;1.92;;;1.27;;
11598;SDS011;5855;48.840;9.188;2023-07-22T11:29:31;3.78;;;1.67;;
11598;SDS011;5855;48.840;9.188;2023-07-22T11:31:58;1.60;;;1.50;;
11598;SDS011;5855;48.840;9.188;2023-07-22T11:34:26;3.28;;;1.60;;
11598;SDS011;5855;48.840;9.188;2023-07-22T11:36:53;1.77;;;1.58;;
11598;SDS011;5855;48.840;9.188;2023-07-22T11:39:22;3.53;;;1.60;;
11598;SDS011;5855;48.840;9.188;2023-07-22T11:41:50;1.40;;;1.30;;
11598;SDS011;5855;48.840;9.188;2023-07-22T11:44:18;2.90;;;1.80;;
11598;SDS011;5855;48.840;9.188;2023-07-22T11:46:48;2.05;;;1.45;;
11598;SDS011;5855;48.840;9.188;2023-07-22T11:52:07;2.78;;;1.70;;
11598;SDS011;5855;48.840;9.188;2023-07-22T11:54:34;2.25;;;1.50;;
11598;SDS011;5855;48.840;9.188;2023-07-22T11:57:12;2.58;;;2.38;;
11598;SDS011;5855;48.840;9.188;2023-07-22T11:59:43;2.50;;;2.30;;
11598;SDS011;5855;48.840;9.188;2023-07-22T12:02:12;1.67;;;1.58;;
11598;SDS011;5855;48.840;9.188;2023-07-22T12:04:41;1.77;;;1.58;;
11598;SDS011;5855;48.840;9.188;2023-07-22T12:07:20;2.17;;;1.50;;
11598;SDS011;5855;48.840;9.188;2023-07-22T12:09:48;2.65;;;1.77;;
11598;SDS011;5855;48.840;9.188;2023-07-22T12:12:15;2.10;;;1.77;;
11598;SDS011;5855;48.840;9.188;2023-07-22T12:14:41;4.97;;;1.55;;
11598;SDS011;5855;48.840;9.188;2023-07-22T12:17:08;2.55;;;1.60;;
11598;SDS011;5855;48.840;9.188;2023-07-22T12:19:35;1.60;;;1.50;;
11598;SDS011;5855;48.840;9.188;2023-07-22T12:22:04;3.10;;;1.50;;
11598;SDS011;5855;48.840;9.188;2023-07-22T12:24:31;2.42;;;1.23;;
11598;SDS011;5855;48.840;9.188;2023-07-22T12:26:59;2.78;;;1.40;;
11598;SDS011;5855;48.840;9.188;2023-07-22T12:29:25;2.13;;;1.40;;
11598;SDS011;5855;48.840;9.188;2023-07-22T12:31:52;1.65;;;1.55;;
11598;SDS011;5855;48.840;9.188;2023-07-22T12:34:19;1.52;;;1.42;;
11598;SDS011;5855;48.840;9.188;2023-07-22T12:36:46;1.60;;;1.50;;
11598;SDS011;5855;48.840;9.188;2023-07-22T12:39:15;1.70;;;1.60;;
11598;SDS011;5855;48.840;9.188;2023-07-22T12:41:42;1.55;;;1.45;;
11598;SDS011;5855;48.840;9.188;2023-07-22T12:44:09;7.15;;;1.90;;
11598;SDS011;5855;48.840;9.188;2023-07-22T12:46:36;10.73;;;1.98;;
11598;SDS011;5855;48.840;9.188;2023-07-22T12:49:02;3.78;;;2.00;;
11598;SDS011;5855;48.840;9.188;2023-07-22T12:51:30;3.55;;;1.77;;
11598;SDS011;5855;48.840;9.188;2023-07-22T12:53:57;2.88;;;1.88;;
11598;SDS011;5855;48.840;9.188;2023-07-22T12:56:25;2.13;;;1.90;;
11598;SDS011;5855;48.840;9.188;2023-07-22T12:58:52;1.88;;;1.67;;
11598;SDS011;5855;48.840;9.188;2023-07-22T13:01:19;2.38;;;1.90;;
11598;SDS011;5855;48.840;9.188;2023-07-22T13:03:46;1.90;;;1.80;;
11598;SDS011;5855;48.840;9.188;2023-07-22T13:06:15;2.05;;;1.70;;
11598;SDS011;5855;48.840;9.188;2023-07-22T13:08:48;2.53;;;2.00;;
11598;SDS011;5855;48.840;9.188;2023-07-22T13:11:35;4.78;;;2.00;;
11598;SDS011;5855;48.840;9.188;2023-07-22T13:14:02;3.70;;;1.95;;
11598;SDS011;5855;48.840;9.188;2023-07-22T13:16:29;1.70;;;1.60;;
11598;SDS011;5855;48.840;9.188;2023-07-22T13:18:56;2.20;;;1.77;;
11598;SDS011;5855;48.840;9.188;2023-07-22T13:21:25;2.60;;;1.90;;
11598;SDS011;5855;48.840;9.188;2023-07-22T13:23:52;3.38;;;3.08;;
11598;SDS011;5855;48.840;9.188;2023-07-22T13:26:19;3.92;;;3.00;;
11598;SDS011;5855;48.840;9.188;2023-07-22T13:28:48;3.50;;;2.22;;
11598;SDS011;5855;48.840;9.188;2023-07-22T13:31:15;2.75;;;1.95;;
11598;SDS011;5855;48.840;9.188;2023-07-22T13:33:41;3.35;;;2.28;;
11598;SDS011;5855;48.840;9.188;2023-07-22T13:36:08;2.20;;;2.00;;
11598;SDS011;5855;48.840;9.188;2023-07-22T13:38:35;3.55;;;2.20;;
11598;SDS011;5855;48.840;9.188;2023-07-22T13:41:02;2.63;;;2.30;;
11598;SDS011;5855;48.840;9.188;2023-07-22T13:43:29;3.80;;;2.00;;
11598;SDS011;5855;48.840;9.188;2023-07-22T13:45:57;3.13;;;2.65;;
11598;SDS011;5855;48.840;9.188;2023-07-22T13:48:24;2.15;;;1.92;;
11598;SDS011;5855;48.840;9.188;2023-07-22T13:50:51;5.85;;;3.10;;
11598;SDS011;5855;48.840;9.188;2023-07-22T13:53:18;3.22;;;2.20;;
11598;SDS011;5855;48.840;9.188;2023-07-22T13:55:44;2.65;;;2.45;;
11598;SDS011;5855;48.840;9.188;2023-07-22T13:58:11;2.45;;;2.25;;
11598;SDS011;5855;48.840;9.188;2023-07-22T14:00:38;4.53;;;2.75;;
11598;SDS011;5855;48.840;9.188;2023-07-22T14:03:06;2.53;;;2.10;;
11598;SDS011;5855;48.840;9.188;2023-07-22T14:05:35;2.22;;;2.03;;
11598;SDS011;5855;48.840;9.188;2023-07-22T14:08:02;3.58;;;3.03;;
11598;SDS011;5855;48.840;9.188;2023-07-22T14:10:29;3.47;;;2.22;;
11598;SDS011;5855;48.840;9.188;2023-07-22T14:12:56;2.20;;;2.00;;
11598;SDS011;5855;48.840;9.188;2023-07-22T14:15:22;2.10;;;1.80;;
11598;SDS011;5855;48.840;9.188;2023-07-22T14:17:49;2.20;;;1.92;;
11598;SDS011;5855;48.840;9.188;2023-07-22T14:20:17;4.30;;;1.98;;
11598;SDS011;5855;48.840;9.188;2023-07-22T14:22:50;2.60;;;2.40;;
11598;SDS011;5855;48.840;9.188;2023-07-22T14:25:21;2.17;;;1.92;;
11598;SDS011;5855;48.840;9.188;2023-07-22T14:27:48;4.95;;;2.03;;
11598;SDS011;5855;48.840;9.188;2023-07-22T14:30:15;2.90;;;1.70;;
11598;SDS011;5855;48.840;9.188;2023-07-22T14:32:42;2.45;;;1.95;;
11598;SDS011;5855;48.840;9.188;2023-07-22T14:35:09;3.22;;;1.83;;
11598;SDS011;5855;48.840;9.188;2023-07-22T14:37:37;1.92;;;1.80;;
11598;SDS011;5855;48.840;9.188;2023-07-22T14:40:05;2.15;;;1.98;;
11598;SDS011;5855;48.840;9.188;2023-07-22T14:42:42;2.25;;;2.05;;
11598;SDS011;5855;48.840;9.188;2023-07-22T14:45:09;2.33;;;2.15;;
11598;SDS011;5855;48.840;9.188;2023-07-22T14:47:36;2.60;;;2.38;;
11598;SDS011;5855;48.840;9.188;2023-07-22T14:50:03;2.50;;;2.30;;
11598;SDS011;5855;48.840;9.188;2023-07-22T14:52:30;2.95;;;1.88;;
11598;SDS011;5855;48.840;9.188;2023-07-22T14:54:58;2.40;;;2.20;;
11598;SDS011;5855;48.840;9.188;2023-07-22T14:57:25;3.55;;;2.50;;
11598;SDS011;5855;48.840;9.188;2023-07-22T14:59:54;3.28;;;2.97;;
11598;SDS011;5855;48.840;9.188;2023-07-22T15:02:21;4.78;;;3.92;;
11598;SDS011;5855;48.840;9.188;2023-07-22T15:04:48;3.60;;;2.90;;
11598;SDS011;5855;48.840;9.188;2023-07-22T15:07:15;4.60;;;3.10;;
11598;SDS011;5855;48.840;9.188;2023-07-22T15:09:42;2.92;;;2.60;;
11598;SDS011;5855;48.840;9.188;2023-07-22T15:12:10;2.92;;;2.60;;
11598;SDS011;5855;48.840;9.188;2023-07-22T15:14:37;3.35;;;2.50;;